aviador You're here:

KPHP Decoded Metar

PHILIP in SD, USA
Report Time2017-05-25 00:55:00
UTC Time2017-05-25 01:17:55
Flight Rules vfr VFR
Wind150° at 17 Gusting to 24 kt
W.Decomp.*RWY 12: 16.1 kt HW 5.5 kt RCW
RWY 05: 0.3 kt HW 17.0 kt RCW
W.Rank150° ranks 24
Current wind is above 150° avg. (9.1)
Visibility9999 m
Phenomena:N/A
Clouds:N/A
Expected CloudBase > 6,800 ft AGL from Temp-Dew spread
CeilingNone
Temp23°C (ISA +12)
Dew Point06°C (33% RH)
AAT15.9°C
QNH994 hPa
Density Alt4,409 ft
Elevation2,205 ft
Report Wrong Elevation
Raw Report
KPHP 250055Z AUTO 15017G24KT 10SM CLR 23/06 A2936 RMK AO2 PK WND
15028/0037 SLP935 T02330061=

Extra information for KPHP:More info

Metar Taf Metar & Taf Last 4 Metars F.Rules Stats Wind Profile Meteogram Temp Stats Airport Information Weather charts Add Link Nearby VenuesMetar ALERT Operation Metar Decoded Social comments

AIRNAV info for KPHP